Terminal Aerodrome Forecast
Issued by NWS Grand Junction, CO

Home | Current Version | Previous Version | Text Only | Print | Product List | Glossary On
Versions: 1 2 3 4 5 6 7 8 9 10 11 12 13 14 15 16 17 18 19 20 21 22 23 24
007
FTUS45 KGJT 241133
TAFGJT
TAF
KGJT 241133Z 2412/2512 10004KT P6SM SKC
     FM241600 16006KT P6SM SKC
     FM241800 25005KT P6SM SKC
     FM242200 26012G22KT P6SM FEW250
     FM250200 25006KT P6SM SCT200
     FM250500 11006KT P6SM SCT200 WS020/25030KT=

USA.gov is the U.S. government's official web portal to all federal, state and local government web resources and services.